Little Valley, New York
Current Conditions -  °F | °C
As of 12:55 AM on Wednesday 22 Oct 2014 (Local Time) from KOLE Reporting Station
Haze Haze  
Wind Chill: 36°   Ceiling: 300
Heat Index: 41°   Visibility: 4mi
Dew Point: 41°   Wind: 8mph
Humidity: 100%   Direction: 10°N
Pressure: 30.03"   Gusts: NA
Location:  42.25°N, 78.81°W
Report Text: KOLE 220455Z AUTO 01007KT 4SM BR OVC003 05/05 A3003 RMK AO2
Loading
Personal Weather Stations






























Interactive Weather Map
Tropical Storm Tracking
New forecast layout! Learn more

10-Day Weather Forecast

Advertisements
Track Severe Weather on mobile